Owens Cross Roads, Alabama
Current Conditions -  °F | °C
As of 8:53 AM on Thursday 30 Oct 2014 (Local Time) from KHSV Reporting Station
Clear Clear  
Wind Chill: 50°   Ceiling: Unl
Heat Index: 50°   Visibility: 10mi
Dew Point: 42°   Wind: 0mph
Humidity: 74%   Direction: NA
Pressure: 30.15"   Gusts: NA
Location:  34.59°N, 86.46°W
Report Text: KHSV 301353Z 00000KT 10SM CLR 10/06 A3015 RMK AO2 SLP210 T01000056
Loading
Personal Weather Stations






























Interactive Weather Map
Tropical Storm Tracking
New forecast layout! Learn more

10-Day Weather Forecast

Advertisements
Track Severe Weather on mobile